createdAt,value
2022-09-26T00:02:17.701Z,70.30
2022-09-26T00:05:21.936Z,70.40
2022-09-26T00:08:24.650Z,70.60
2022-09-26T00:11:31.500Z,71.20
2022-09-26T00:14:34.628Z,70.40
2022-09-26T00:17:38.711Z,70.50
2022-09-26T00:20:49.694Z,70.50
2022-09-26T00:23:52.911Z,70.80
2022-09-26T00:26:55.764Z,70.70
2022-09-26T00:29:58.652Z,71.20
2022-09-26T00:33:02.774Z,70.60
2022-09-26T00:36:07.705Z,70.60
2022-09-26T00:39:13.368Z,71.10
2022-09-26T00:42:17.496Z,71.00
2022-09-26T00:45:20.532Z,70.20
2022-09-26T00:48:24.720Z,70.30
2022-09-26T00:51:29.327Z,70.40
2022-09-26T00:54:35.815Z,71.10
2022-09-26T00:57:53.239Z,70.20
2022-09-26T01:00:58.086Z,70.80
2022-09-26T01:04:03.901Z,70.50
2022-09-26T01:07:17.028Z,70.50
2022-09-26T01:10:20.216Z,70.60
2022-09-26T01:13:23.203Z,70.30
2022-09-26T01:16:26.821Z,70.50
2022-09-26T01:19:41.917Z,70.70
2022-09-26T01:23:29.705Z,70.90
2022-09-26T01:27:15.952Z,71.10
2022-09-26T01:30:26.745Z,71.00
2022-09-26T01:34:00.102Z,70.50
2022-09-26T01:37:10.741Z,70.50
2022-09-26T01:40:27.922Z,70.60
2022-09-26T01:43:40.611Z,70.50
2022-09-26T01:46:53.905Z,70.60
2022-09-26T01:50:03.502Z,70.70
2022-09-26T01:53:16.069Z,70.60
2022-09-26T01:56:24.743Z,71.20
2022-09-26T01:59:33.824Z,70.60
2022-09-26T02:02:44.620Z,70.80
2022-09-26T02:05:54.369Z,70.90
2022-09-26T02:09:05.930Z,71.00
2022-09-26T02:12:15.504Z,71.10
2022-09-26T02:15:26.780Z,71.20
2022-09-26T02:18:37.459Z,71.40
2022-09-26T02:21:42.116Z,71.30
2022-09-26T02:24:45.720Z,71.20
2022-09-26T02:27:50.449Z,71.10
2022-09-26T02:30:55.685Z,71.00
2022-09-26T02:34:00.122Z,71.10
2022-09-26T02:37:03.207Z,71.00
2022-09-26T02:40:08.444Z,70.90
2022-09-26T02:43:51.790Z,70.90
2022-09-26T02:47:38.671Z,70.80
2022-09-26T03:18:43.350Z,70.50
2022-09-26T03:21:48.295Z,70.60
2022-09-26T03:24:51.571Z,70.30
2022-09-26T03:27:56.096Z,70.40
2022-09-26T03:30:59.169Z,70.30
2022-09-26T03:34:02.914Z,70.30
2022-09-26T03:37:08.450Z,70.40
2022-09-26T03:40:13.897Z,70.40
2022-09-26T03:43:17.119Z,70.80
2022-09-26T03:46:20.461Z,70.90
2022-09-26T03:49:30.608Z,71.00
2022-09-26T03:52:36.763Z,71.20
2022-09-26T03:55:40.621Z,71.40
2022-09-26T03:58:45.173Z,71.40
2022-09-26T04:01:48.807Z,71.50
2022-09-26T04:04:52.096Z,71.60
2022-09-26T04:07:56.655Z,71.50
2022-09-26T04:11:04.704Z,71.40
2022-09-26T04:14:07.806Z,71.40
2022-09-26T04:17:11.120Z,71.40
2022-09-26T04:20:14.468Z,71.20
2022-09-26T04:23:19.130Z,71.00
2022-09-26T04:26:24.305Z,70.90
2022-09-26T04:29:29.094Z,71.20
2022-09-26T04:32:32.356Z,70.50
2022-09-26T04:35:35.573Z,70.40
2022-09-26T04:38:41.183Z,70.60
2022-09-26T04:41:44.655Z,70.60
2022-09-26T04:44:48.191Z,70.60
2022-09-26T04:47:51.558Z,70.60
2022-09-26T04:50:54.910Z,70.50
2022-09-26T04:54:00.232Z,70.50
2022-09-26T04:57:05.693Z,70.00
2022-09-26T05:00:14.513Z,70.30
2022-09-26T05:03:18.776Z,70.30
2022-09-26T05:06:21.809Z,70.20
2022-09-26T05:09:26.311Z,70.30
2022-09-26T05:12:29.509Z,70.10
2022-09-26T05:15:34.232Z,70.20
2022-09-26T05:18:39.188Z,70.30
2022-09-26T05:21:43.093Z,70.30
2022-09-26T05:25:05.367Z,70.30
2022-09-26T05:28:08.572Z,70.40
2022-09-26T05:31:11.866Z,70.20
2022-09-26T05:34:19.426Z,70.30
2022-09-26T05:37:23.523Z,70.10
2022-09-26T05:40:47.968Z,69.90
2022-09-26T05:43:51.528Z,69.90
2022-09-26T05:46:55.092Z,69.80
2022-09-26T05:49:58.224Z,69.70
2022-09-26T05:53:02.438Z,69.50
2022-09-26T05:56:08.147Z,69.50
2022-09-26T05:59:11.629Z,69.50
2022-09-26T06:02:19.970Z,69.50
2022-09-26T06:05:24.700Z,69.50
2022-09-26T06:08:28.880Z,69.40
2022-09-26T06:11:33.175Z,69.40
2022-09-26T06:14:36.373Z,69.50
2022-09-26T06:17:39.550Z,69.50
2022-09-26T06:20:42.847Z,69.70
2022-09-26T06:23:46.650Z,69.80
2022-09-26T06:26:51.174Z,69.90
2022-09-26T06:29:54.410Z,70.10
2022-09-26T06:32:57.896Z,70.20
2022-09-26T06:36:02.115Z,70.20
2022-09-26T06:39:05.654Z,70.20
2022-09-26T06:42:10.180Z,70.20
2022-09-26T06:45:13.831Z,70.30
2022-09-26T06:48:19.930Z,70.30
2022-09-26T06:51:27.216Z,70.40
2022-09-26T06:54:30.598Z,70.50
2022-09-26T06:57:40.880Z,70.50
2022-09-26T07:00:44.173Z,70.60
2022-09-26T07:03:47.543Z,70.50
2022-09-26T07:06:50.801Z,70.40
2022-09-26T07:09:53.942Z,70.10
2022-09-26T07:13:03.995Z,70.10
2022-09-26T07:16:07.647Z,70.10
2022-09-26T07:19:12.529Z,69.90
2022-09-26T07:22:16.421Z,69.90
2022-09-26T07:25:19.644Z,69.90
2022-09-26T07:28:24.205Z,70.00
2022-09-26T07:31:27.490Z,69.90
2022-09-26T07:34:32.083Z,70.20
2022-09-26T07:37:35.401Z,70.30
2022-09-26T07:40:39.416Z,70.30
2022-09-26T07:47:25.822Z,70.20
2022-09-26T07:50:29.078Z,70.10
2022-09-26T07:53:32.577Z,69.90
2022-09-26T07:56:35.626Z,69.90
2022-09-26T07:59:40.163Z,69.90
2022-09-26T08:02:46.990Z,69.40
2022-09-26T08:05:50.294Z,69.10
2022-09-26T08:08:54.720Z,69.00
2022-09-26T08:11:58.058Z,68.80
2022-09-26T08:15:04.394Z,68.90
2022-09-26T08:18:07.618Z,68.50
2022-09-26T08:21:10.953Z,68.50
2022-09-26T08:24:14.191Z,68.20
2022-09-26T08:27:17.946Z,68.20
2022-09-26T08:30:25.452Z,68.00
2022-09-26T08:33:28.969Z,67.50
2022-09-26T08:36:32.874Z,67.60
2022-09-26T08:39:35.958Z,67.50
2022-09-26T08:43:00.109Z,67.30
2022-09-26T08:46:38.341Z,65.90
2022-09-26T08:50:09.920Z,65.70
2022-09-26T08:53:19.910Z,64.40
2022-09-26T08:56:33.364Z,64.40
2022-09-26T08:59:43.483Z,63.50
2022-09-26T09:03:06.302Z,63.40
2022-09-26T09:06:13.836Z,62.70
2022-09-26T09:09:19.981Z,62.10
2022-09-26T09:12:39.976Z,61.40
2022-09-26T09:16:04.481Z,61.70
2022-09-26T09:19:21.499Z,60.80
2022-09-26T09:22:56.374Z,60.70
2022-09-26T09:30:15.313Z,59.40
2022-09-26T09:33:22.932Z,58.90
2022-09-26T09:36:33.286Z,58.70
2022-09-26T09:39:40.965Z,60.00
2022-09-26T09:42:51.742Z,60.40
2022-09-26T09:46:03.943Z,60.20
2022-09-26T09:49:21.269Z,60.10
2022-09-26T09:52:51.056Z,59.10
2022-09-26T09:56:08.989Z,58.60
2022-09-26T09:59:36.781Z,59.10
2022-09-26T10:02:52.684Z,58.70
2022-09-26T10:06:01.216Z,58.70
2022-09-26T10:09:36.505Z,59.00
2022-09-26T10:12:44.202Z,57.90
2022-09-26T10:15:58.018Z,58.10
2022-09-26T10:19:08.053Z,57.70
2022-09-26T10:22:24.179Z,57.30
2022-09-26T10:25:28.819Z,57.70
2022-09-26T10:28:37.620Z,57.70
2022-09-26T10:31:43.136Z,58.00
2022-09-26T10:35:08.450Z,57.90
2022-09-26T10:38:22.590Z,56.80
2022-09-26T10:41:26.249Z,56.70
2022-09-26T10:44:34.033Z,57.40
2022-09-26T10:47:37.693Z,57.10
2022-09-26T10:50:51.927Z,56.90
2022-09-26T10:54:04.835Z,56.20
2022-09-26T10:57:21.149Z,56.80
2022-09-26T11:00:40.110Z,56.30
2022-09-26T11:03:47.165Z,55.30
2022-09-26T11:06:50.657Z,56.20
2022-09-26T11:09:58.971Z,56.10
2022-09-26T11:13:17.153Z,56.00
2022-09-26T11:16:20.487Z,55.60
2022-09-26T11:19:38.763Z,55.50
2022-09-26T11:22:48.329Z,55.40
2022-09-26T11:26:06.773Z,56.10
2022-09-26T11:29:21.936Z,56.20
2022-09-26T11:32:32.175Z,56.10
2022-09-26T11:35:53.057Z,56.50
2022-09-26T11:38:58.269Z,56.50
2022-09-26T11:42:17.505Z,57.00
2022-09-26T11:45:39.188Z,56.80
2022-09-26T11:49:13.164Z,57.30
2022-09-26T11:52:49.771Z,57.70
2022-09-26T11:56:15.939Z,58.30
2022-09-26T11:59:58.313Z,57.50
2022-09-26T12:03:57.580Z,57.70
2022-09-26T12:07:17.567Z,57.80
2022-09-26T12:10:36.225Z,57.80
2022-09-26T12:13:53.947Z,57.90
2022-09-26T12:17:07.842Z,58.00
2022-09-26T12:20:29.332Z,58.50
2022-09-26T12:23:41.547Z,57.70
2022-09-26T12:26:53.764Z,57.80
2022-09-26T12:30:06.802Z,58.00
2022-09-26T12:34:00.551Z,58.00
2022-09-26T12:37:26.343Z,57.50
2022-09-26T12:40:40.732Z,57.70
2022-09-26T12:44:36.482Z,57.80
2022-09-26T12:48:09.174Z,57.30
2022-09-26T12:51:28.727Z,57.00
2022-09-26T12:55:03.469Z,57.10
2022-09-26T12:58:29.128Z,56.80
2022-09-26T13:02:10.399Z,56.30
2022-09-26T13:05:54.043Z,56.00
2022-09-26T13:09:15.839Z,56.00
2022-09-26T13:12:45.722Z,55.90
2022-09-26T13:16:13.349Z,55.80
2022-09-26T13:19:28.014Z,56.70
2022-09-26T13:22:38.785Z,57.10
2022-09-26T13:25:50.477Z,56.60
2022-09-26T13:29:23.565Z,57.10
2022-09-26T13:32:36.648Z,57.30
2022-09-26T13:35:45.308Z,57.70
2022-09-26T13:39:00.584Z,57.90
2022-09-26T13:42:14.631Z,58.30
2022-09-26T13:45:31.185Z,58.60
2022-09-26T13:48:43.928Z,58.90
2022-09-26T13:52:06.837Z,59.10
2022-09-26T13:55:18.363Z,59.50
2022-09-26T13:58:28.086Z,59.70
2022-09-26T14:01:33.484Z,59.50
2022-09-26T14:04:37.790Z,59.30
2022-09-26T14:08:10.862Z,59.10
2022-09-26T14:11:24.605Z,59.20
2022-09-26T14:14:44.851Z,59.40
2022-09-26T14:18:29.524Z,59.80
2022-09-26T14:21:39.726Z,60.30
2022-09-26T14:24:44.427Z,60.70
2022-09-26T14:27:48.057Z,60.90
2022-09-26T14:31:29.796Z,60.80
2022-09-26T14:34:43.735Z,61.60
2022-09-26T14:37:51.284Z,61.40
2022-09-26T14:40:58.237Z,61.90
2022-09-26T14:44:07.151Z,61.60
2022-09-26T14:47:17.282Z,61.50
2022-09-26T14:50:35.366Z,62.00
2022-09-26T14:53:44.134Z,61.50
2022-09-26T14:57:36.644Z,61.70
2022-09-26T15:00:50.450Z,61.70
2022-09-26T15:04:04.780Z,61.60
2022-09-26T15:07:18.769Z,61.10
2022-09-26T15:10:29.542Z,61.50
2022-09-26T15:13:40.033Z,60.50
2022-09-26T15:16:51.588Z,60.30
2022-09-26T15:20:02.581Z,60.00
2022-09-26T15:23:23.627Z,59.90
2022-09-26T15:26:31.953Z,59.70
2022-09-26T15:29:36.471Z,59.90
2022-09-26T15:32:40.142Z,60.00
2022-09-26T15:35:53.763Z,60.10
2022-09-26T15:38:59.150Z,60.70
2022-09-26T15:42:29.577Z,60.50
2022-09-26T15:45:50.747Z,60.40
2022-09-26T15:48:54.024Z,61.00
2022-09-26T15:51:57.962Z,61.00
2022-09-26T15:55:03.693Z,61.00
2022-09-26T15:58:08.411Z,61.00
2022-09-26T16:01:17.050Z,60.70
2022-09-26T16:04:23.687Z,61.00
2022-09-26T16:07:31.801Z,61.30
2022-09-26T16:10:36.443Z,61.40
2022-09-26T16:13:46.707Z,61.50
2022-09-26T16:16:49.957Z,61.40
2022-09-26T16:19:55.617Z,61.70
2022-09-26T16:23:04.438Z,61.70
2022-09-26T16:26:40.277Z,61.70
2022-09-26T16:29:43.790Z,62.10
2022-09-26T16:32:47.078Z,62.30
2022-09-26T16:35:51.635Z,62.00
2022-09-26T16:38:58.468Z,62.00
2022-09-26T16:42:06.094Z,61.90
2022-09-26T16:45:16.540Z,62.40
2022-09-26T16:48:42.742Z,62.90
2022-09-26T16:52:27.842Z,63.80
2022-09-26T16:55:35.827Z,63.60
2022-09-26T16:58:48.935Z,63.50
2022-09-26T17:01:55.666Z,63.40
2022-09-26T17:04:59.089Z,63.60
2022-09-26T17:08:02.686Z,63.70
2022-09-26T17:11:15.340Z,63.90
2022-09-26T17:14:24.885Z,64.20
2022-09-26T17:17:30.953Z,64.50
2022-09-26T17:20:35.301Z,64.60
2022-09-26T17:23:41.773Z,64.90
2022-09-26T17:26:54.361Z,65.00
2022-09-26T17:30:02.205Z,65.80
2022-09-26T17:33:07.412Z,65.50
2022-09-26T17:36:25.286Z,65.50
2022-09-26T17:39:29.265Z,66.00
2022-09-26T17:42:32.723Z,65.80
2022-09-26T17:45:46.910Z,66.00
2022-09-26T17:48:50.330Z,66.50
2022-09-26T17:51:55.949Z,66.20
2022-09-26T17:55:04.384Z,66.30
2022-09-26T17:58:10.650Z,66.60
2022-09-26T18:01:24.303Z,66.70
2022-09-26T18:04:29.581Z,67.80
2022-09-26T18:07:40.953Z,67.30
2022-09-26T18:10:52.558Z,68.10
2022-09-26T18:13:57.001Z,68.20
2022-09-26T18:17:02.155Z,68.50
2022-09-26T18:20:06.766Z,68.40
2022-09-26T18:23:17.354Z,68.30
2022-09-26T18:26:31.651Z,68.50
2022-09-26T18:29:41.650Z,68.80
2022-09-26T18:32:51.046Z,68.70
2022-09-26T18:35:54.565Z,68.60
2022-09-26T18:38:57.877Z,68.50
2022-09-26T18:42:06.185Z,68.60
2022-09-26T18:45:14.541Z,68.70
2022-09-26T18:48:27.438Z,68.90
2022-09-26T18:51:30.788Z,69.50
2022-09-26T18:54:35.388Z,69.10
2022-09-26T18:57:56.121Z,69.10
2022-09-26T19:01:04.855Z,68.90
2022-09-26T19:04:17.391Z,68.80
2022-09-26T19:07:21.904Z,69.10
2022-09-26T19:10:27.133Z,68.90
2022-09-26T19:13:31.332Z,68.90
2022-09-26T19:16:34.641Z,69.30
2022-09-26T19:19:44.275Z,68.90
2022-09-26T19:22:48.126Z,68.80
2022-09-26T19:25:51.725Z,68.80
2022-09-26T19:28:57.660Z,68.90
2022-09-26T19:32:02.300Z,68.90
2022-09-26T19:35:21.577Z,68.80
2022-09-26T19:38:28.226Z,69.20
2022-09-26T19:41:31.749Z,68.90
2022-09-26T19:44:36.391Z,68.80
2022-09-26T19:47:45.642Z,68.70
2022-09-26T19:50:53.052Z,68.90
2022-09-26T19:53:56.970Z,68.80
2022-09-26T19:57:00.777Z,68.80
2022-09-26T20:00:04.358Z,68.80
2022-09-26T20:03:11.676Z,68.80
2022-09-26T20:06:21.192Z,69.00
2022-09-26T20:09:24.588Z,69.30
2022-09-26T20:12:28.412Z,69.40
2022-09-26T20:15:33.053Z,69.40
2022-09-26T20:18:37.369Z,69.60
2022-09-26T20:21:42.412Z,69.60
2022-09-26T20:24:49.184Z,69.40
2022-09-26T20:27:52.854Z,69.60
2022-09-26T20:30:58.828Z,69.60
2022-09-26T20:34:02.197Z,69.50
2022-09-26T20:37:07.843Z,69.50
2022-09-26T20:40:18.563Z,69.50
2022-09-26T20:43:30.366Z,69.30
2022-09-26T20:46:37.960Z,69.20
2022-09-26T20:49:49.386Z,69.20
2022-09-26T20:52:54.574Z,69.10
2022-09-26T20:55:57.948Z,69.00
2022-09-26T20:59:01.971Z,68.80
2022-09-26T21:02:26.541Z,68.80
2022-09-26T21:05:29.857Z,69.00
2022-09-26T21:08:34.606Z,69.20
2022-09-26T21:11:38.505Z,68.70
2022-09-26T21:14:44.770Z,68.90
2022-09-26T21:17:49.176Z,69.10
2022-09-26T21:20:53.247Z,69.40
2022-09-26T21:24:01.734Z,69.80
2022-09-26T21:27:05.338Z,70.20
2022-09-26T21:30:15.498Z,70.00
2022-09-26T21:33:21.754Z,70.20
2022-09-26T21:36:30.457Z,70.20
2022-09-26T21:39:40.271Z,70.30
2022-09-26T21:42:49.100Z,70.60
2022-09-26T21:45:53.039Z,71.40
2022-09-26T21:48:57.717Z,71.30
2022-09-26T21:52:10.619Z,70.90
2022-09-26T21:55:21.589Z,71.10
2022-09-26T21:58:32.707Z,71.40
2022-09-26T22:01:36.314Z,71.50
2022-09-26T22:04:40.353Z,71.40
2022-09-26T22:07:43.620Z,71.20
2022-09-26T22:10:48.238Z,71.30
2022-09-26T22:13:51.547Z,71.60
2022-09-26T22:16:57.438Z,71.30
2022-09-26T22:20:01.907Z,71.20
2022-09-26T22:23:05.225Z,71.20
2022-09-26T22:26:10.931Z,71.00
2022-09-26T22:29:14.629Z,71.00
2022-09-26T22:32:18.083Z,70.80
2022-09-26T22:35:21.997Z,70.70
2022-09-26T22:38:25.878Z,71.20
2022-09-26T22:41:31.219Z,70.70
2022-09-26T22:44:34.548Z,70.80
2022-09-26T22:47:38.210Z,70.90
2022-09-26T22:50:44.779Z,71.60
2022-09-26T22:53:48.097Z,71.80
2022-09-26T22:56:53.063Z,71.60
2022-09-26T22:59:56.240Z,71.80
2022-09-26T23:02:59.449Z,71.10
2022-09-26T23:06:04.123Z,71.90
2022-09-26T23:09:07.755Z,72.10
2022-09-26T23:12:13.272Z,72.30
2022-09-26T23:15:18.261Z,72.10
2022-09-26T23:18:22.375Z,72.40
2022-09-26T23:21:28.783Z,72.40
2022-09-26T23:24:32.219Z,73.40
2022-09-26T23:27:36.989Z,72.30
2022-09-26T23:30:46.935Z,72.30
2022-09-26T23:33:50.603Z,72.40
2022-09-26T23:36:53.951Z,72.40
2022-09-26T23:39:57.224Z,72.50
2022-09-26T23:43:02.565Z,72.60
2022-09-26T23:46:06.399Z,72.70
2022-09-26T23:49:09.769Z,72.60
2022-09-26T23:52:12.976Z,72.40
2022-09-26T23:55:17.627Z,72.50
2022-09-26T23:58:22.532Z,72.60
